Strona główna
METAR-TAF:

METAR-TAF

Lotnisko :

Port lotniczy Linköping City

Linköping, Szwecja

Szerokość geograficzna: 58-24N, Długość geograficzna: 015-41E, wysokość: 52 m

Aktualna obserwacja pogody

Raport powstał 27 minut temu, godzina 10:50 UTC
Wiatr 19 kt od zachodnio-północny zachód, zmienny między zachodnio-południowy zachód i północny zachód
Temperatura 7°C
Wilgotność 29%
Ciśnienie 995 hPa
Widzialność 10 km lub więcej
Brak chmur poniżej 1500 m i brak chmur cumulonimbus

METAR: ESSL 031050Z 29019KT 250V310 CAVOK 07/M10 Q0995

czas: 13:17 (11:17 UTC)

Prognoza

Raport powstał 2 godziny i 47 minut temu, godzina 08:30 UTC
Prognoza ważna od 03 godzina 09 UTC do 03 godzina 18 UTC
Wiatr 20 kt od zachód w porywach dochodzący do 33 kt
Widzialność 10 km lub więcej
Brak chmur poniżej 1500 m i brak chmur cumulonimbus

TAF: ESSL 030830Z 0309/0318 28020G33KT CAVOK

Obserwacja i prognoza pogody dla ponad 4000 lotnisk (raport METAR i TAF).

Dostępne stacje oznaczono żółtymi i czerwonymi punktami na mapie.

Najedź kursorem aby zobaczyć nazwę stacji.

Kliknij aby zobaczyć obserwacje i prognozy pogody.

Aby zmienić mapę: kliknij na zielony przycisk z czarnym krzyżykiem, aby powiększyć; na zielony przycisk z myślnikiem, aby pomniejszyć; na zielone strzałki, aby przejść do map sąsiednich.


METAR-TAF: